Time;durP1;ratioP1;P1;durP2;ratioP2;P2;SDS_P1;SDS_P2;PMS_P1;PMS_P2;Temp;Humidity;BMP_temperature;BMP_pressure;BME280_temperature;BME280_humidity;BME280_pressure;Samples;Min_cycle;Max_cycle;Signal;HPM_P1;HPM_P2
2023/11/05 00:00:03;;;;;;;20.47;3.50;;;10.10;99.90;;;;;;4999007;28;37773;-80
2023/11/05 00:02:30;;;;;;;19.27;3.37;;;10.10;99.90;;;;;;5008588;28;37534;-80
2023/11/05 00:04:56;;;;;;;20.30;3.57;;;10.10;99.90;;;;;;5003773;28;39132;-79
2023/11/05 00:07:22;;;;;;;20.40;3.70;;;10.10;99.90;;;;;;4996926;28;36573;-80
2023/11/05 00:09:48;;;;;;;17.63;3.10;;;10.20;99.90;;;;;;5006880;28;39204;-79
2023/11/05 00:12:14;;;;;;;19.53;3.83;;;10.20;99.90;;;;;;4991744;28;37320;-83
2023/11/05 00:14:41;;;;;;;21.67;4.37;;;10.30;99.90;;;;;;5005001;28;36958;-81
2023/11/05 00:17:07;;;;;;;19.33;3.77;;;10.30;99.90;;;;;;5006487;28;38112;-81
2023/11/05 00:19:33;;;;;;;18.03;3.23;;;10.40;99.90;;;;;;5003995;28;37683;-81
2023/11/05 00:21:59;;;;;;;19.53;4.20;;;10.50;99.90;;;;;;4998352;28;37250;-81
2023/11/05 00:24:25;;;;;;;23.93;5.20;;;10.50;99.90;;;;;;5001226;28;38773;-81
2023/11/05 00:26:51;;;;;;;16.27;3.20;;;10.50;99.90;;;;;;4993179;28;35965;-82
2023/11/05 00:29:17;;;;;;;17.77;3.90;;;10.60;99.90;;;;;;5002278;28;37901;-81
2023/11/05 00:31:44;;;;;;;19.33;3.37;;;10.60;99.90;;;;;;4999602;28;37613;-81
2023/11/05 00:34:10;;;;;;;20.73;2.90;;;10.70;99.90;;;;;;4996924;28;36977;-80
2023/11/05 00:36:36;;;;;;;16.90;3.20;;;10.80;99.90;;;;;;4999504;28;37503;-82
2023/11/05 00:39:02;;;;;;;18.50;3.63;;;10.70;99.90;;;;;;4995558;28;39602;-81
2023/11/05 00:41:28;;;;;;;21.97;4.90;;;10.70;99.90;;;;;;5000598;28;37860;-84
2023/11/05 00:43:55;;;;;;;22.97;4.50;;;10.80;99.90;;;;;;4997035;28;37123;-82
2023/11/05 00:46:21;;;;;;;14.87;2.90;;;10.80;99.90;;;;;;5002086;28;36041;-82
2023/11/05 00:48:47;;;;;;;13.37;2.83;;;10.90;99.90;;;;;;5002394;28;39501;-81
2023/11/05 00:51:14;;;;;;;19.70;3.97;;;10.80;99.90;;;;;;5001604;28;37577;-81
2023/11/05 00:53:40;;;;;;;19.30;3.57;;;10.80;99.90;;;;;;5002720;28;37003;-81
2023/11/05 00:56:06;;;;;;;19.90;3.30;;;10.80;99.90;;;;;;4993002;28;37454;-82
2023/11/05 00:58:32;;;;;;;17.60;3.33;;;10.80;99.90;;;;;;5000432;28;38389;-82
2023/11/05 01:00:58;;;;;;;17.70;3.60;;;10.90;99.90;;;;;;5003815;28;39414;-82
2023/11/05 01:03:24;;;;;;;17.00;3.67;;;10.90;99.90;;;;;;5007087;28;38210;-83
2023/11/05 01:05:51;;;;;;;16.30;2.97;;;10.90;99.90;;;;;;5006483;28;37076;-82
2023/11/05 01:08:17;;;;;;;23.60;3.77;;;10.90;99.90;;;;;;5002559;28;41211;-81
2023/11/05 01:10:43;;;;;;;15.80;3.53;;;10.90;99.90;;;;;;5006502;28;39734;-80
2023/11/05 01:13:09;;;;;;;14.67;3.13;;;10.80;99.90;;;;;;4998199;28;38537;-81
2023/11/05 01:15:35;;;;;;;18.57;2.97;;;10.80;99.90;;;;;;5006644;28;36348;-82
2023/11/05 01:18:01;;;;;;;12.57;3.07;;;10.80;99.90;;;;;;5006968;28;37818;-81
2023/11/05 01:20:28;;;;;;;20.07;3.07;;;10.80;99.90;;;;;;5008701;28;37764;-81
2023/11/05 01:22:54;;;;;;;19.53;3.63;;;10.80;99.90;;;;;;5008729;28;37841;-82
2023/11/05 01:25:20;;;;;;;18.27;3.13;;;10.80;99.90;;;;;;5007824;28;36753;-82
2023/11/05 01:27:46;;;;;;;15.50;3.20;;;10.80;99.90;;;;;;5000542;28;37686;-81
2023/11/05 01:30:12;;;;;;;21.27;3.23;;;10.80;99.90;;;;;;4993757;28;38196;-82
2023/11/05 01:32:39;;;;;;;16.63;3.13;;;10.70;99.90;;;;;;5000667;28;37632;-81
2023/11/05 01:35:05;;;;;;;17.57;2.77;;;10.70;99.90;;;;;;5006479;28;37296;-82
2023/11/05 01:37:32;;;;;;;15.97;3.13;;;10.70;99.90;;;;;;5004070;28;39270;-81
2023/11/05 01:39:58;;;;;;;17.83;3.10;;;10.70;99.90;;;;;;5000702;28;38093;-82
2023/11/05 01:42:24;;;;;;;14.27;2.23;;;10.80;99.90;;;;;;5002025;28;36882;-82
2023/11/05 01:44:50;;;;;;;12.00;1.97;;;10.80;99.90;;;;;;5002679;28;35955;-82
2023/11/05 01:47:17;;;;;;;15.07;2.87;;;10.90;99.90;;;;;;5007894;28;38779;-79
2023/11/05 01:49:43;;;;;;;11.70;2.90;;;10.90;99.90;;;;;;4995860;28;38113;-82
2023/11/05 01:52:10;;;;;;;13.77;2.60;;;10.90;99.90;;;;;;5002148;28;36969;-81
2023/11/05 01:54:37;;;;;;;18.23;3.47;;;10.90;99.90;;;;;;5008385;28;35872;-82
2023/11/05 01:57:04;;;;;;;15.20;3.10;;;10.80;99.90;;;;;;5003856;28;37630;-82
2023/11/05 01:59:31;;;;;;;14.90;2.37;;;10.80;99.90;;;;;;5004722;28;38295;-83
2023/11/05 02:04:34;;;;;;;20.23;3.53;;;10.70;99.90;;;;;;5544294;22;20042;-83
2023/11/05 02:07:00;;;;;;;16.30;3.23;;;10.60;99.90;;;;;;5034085;28;40177;-82
2023/11/05 02:09:32;;;;;;;18.93;2.90;;;10.50;99.90;;;;;;5035993;28;38690;-83
2023/11/05 02:11:59;;;;;;;29.83;3.75;;;10.50;99.90;;;;;;5038680;28;39635;-82
2023/11/05 02:14:25;;;;;;;11.67;3.00;;;10.50;99.90;;;;;;5030794;28;38696;-82
2023/11/05 02:16:51;;;;;;;15.77;3.07;;;10.50;99.90;;;;;;5026502;28;37766;-82
2023/11/05 02:19:17;;;;;;;17.07;3.60;;;10.40;99.90;;;;;;5031802;28;39815;-81
2023/11/05 02:21:56;;;;;;;17.67;3.27;;;10.40;99.90;;;;;;5032292;28;38744;-81
2023/11/05 02:24:25;;;;;;;17.10;4.33;;;10.40;99.90;;;;;;5035786;28;37444;-82
2023/11/05 02:26:57;;;;;;;15.40;4.60;;;10.40;99.90;;;;;;5023193;28;39867;-82
2023/11/05 02:29:23;;;;;;;;;;;10.40;99.90;;;;;;5020549;28;39945;-83
2023/11/05 02:31:49;;;;;;;17.87;3.67;;;10.40;99.90;;;;;;5037163;28;38412;-82
2023/11/05 02:34:16;;;;;;;18.97;3.87;;;10.30;99.90;;;;;;5032529;28;37508;-81
2023/11/05 02:36:43;;;;;;;13.37;3.70;;;10.40;99.90;;;;;;5031591;28;40182;-82
2023/11/05 02:39:09;;;;;;;11.53;2.87;;;10.40;99.90;;;;;;5028420;28;37337;-82
2023/11/05 02:41:37;;;;;;;17.43;3.70;;;10.30;99.90;;;;;;5031867;28;38876;-81
2023/11/05 02:44:03;;;;;;;13.43;3.60;;;10.30;99.90;;;;;;5045106;28;37732;-81
2023/11/05 02:46:29;;;;;;;22.37;4.33;;;10.30;99.90;;;;;;5022570;28;38874;-82
2023/11/05 02:48:59;;;;;;;19.87;4.53;;;10.30;99.90;;;;;;5028872;28;39970;-81
2023/11/05 02:51:31;;;;;;;18.07;4.00;;;10.30;99.90;;;;;;5044640;28;36999;-83
2023/11/05 02:53:57;;;;;;;17.40;3.58;;;10.30;99.90;;;;;;5030365;28;38735;-82
2023/11/05 02:56:24;;;;;;;14.60;4.40;;;10.30;99.90;;;;;;5033235;28;37475;-81
2023/11/05 02:58:59;;;;;;;24.83;4.40;;;10.30;99.90;;;;;;5033164;28;38864;-81
2023/11/05 03:01:27;;;;;;;14.60;3.80;;;10.30;99.90;;;;;;5024349;28;37272;-81
2023/11/05 03:03:53;;;;;;;16.33;4.17;;;10.30;99.90;;;;;;5031641;28;39151;-82
2023/11/05 03:06:20;;;;;;;7.23;3.23;;;10.30;99.90;;;;;;5017466;28;37949;-81
2023/11/05 03:08:46;;;;;;;13.30;3.07;;;10.30;99.90;;;;;;5021261;28;37250;-81
2023/11/05 03:11:12;;;;;;;12.17;4.03;;;10.30;99.90;;;;;;5032427;28;38029;-81
2023/11/05 03:13:38;;;;;;;14.33;4.00;;;10.30;99.90;;;;;;5026264;28;36264;-81
2023/11/05 03:16:08;;;;;;;16.30;4.07;;;10.30;99.90;;;;;;5028386;28;40275;-82
2023/11/05 03:18:35;;;;;;;17.40;3.97;;;10.30;99.90;;;;;;5024512;28;38902;-81
2023/11/05 03:21:15;;;;;;;10.97;3.10;;;10.40;99.90;;;;;;5044088;28;39586;-81
2023/11/05 03:23:42;;;;;;;16.10;3.87;;;10.30;99.90;;;;;;5025311;28;50005;-80
2023/11/05 03:26:08;;;;;;;14.10;4.10;;;10.40;99.90;;;;;;5030105;28;38700;-81
2023/11/05 03:28:48;;;;;;;13.37;4.70;;;10.40;99.90;;;;;;5029389;28;39037;-82
2023/11/05 03:31:17;;;;;;;19.47;4.50;;;10.40;99.90;;;;;;5021275;28;36785;-81
2023/11/05 03:33:43;;;;;;;11.20;3.40;;;10.40;99.90;;;;;;5031678;28;36950;-82
2023/11/05 03:36:11;;;;;;;11.77;3.97;;;10.40;99.90;;;;;;5027347;28;39540;-79
2023/11/05 03:38:37;;;;;;;16.37;4.20;;;10.40;99.90;;;;;;5028345;28;37337;-82
2023/11/05 03:41:04;;;;;;;9.60;3.40;;;10.40;99.90;;;;;;5024942;28;37717;-80
2023/11/05 03:43:35;;;;;;;16.30;4.33;;;10.40;99.90;;;;;;5037305;28;37850;-82
2023/11/05 03:46:12;;;;;;;14.13;3.47;;;10.40;99.90;;;;;;5031041;28;38163;-81
2023/11/05 03:48:43;;;;;;;12.20;3.63;;;10.50;99.90;;;;;;5017498;28;38500;-81
2023/11/05 03:51:16;;;;;;;15.33;4.50;;;10.50;99.90;;;;;;5019531;28;37087;-81
2023/11/05 03:53:45;;;;;;;12.20;3.77;;;10.50;99.90;;;;;;5025315;28;36099;-81
2023/11/05 03:56:12;;;;;;;16.57;3.73;;;10.50;99.90;;;;;;5022146;28;38922;-81
2023/11/05 03:58:40;;;;;;;14.90;4.20;;;10.50;99.90;;;;;;5024193;28;39797;-81
2023/11/05 04:01:13;;;;;;;9.60;3.70;;;10.50;99.90;;;;;;5022416;28;38159;-81
2023/11/05 04:03:40;;;;;;;15.43;4.43;;;10.50;99.90;;;;;;5026984;28;37026;-82
2023/11/05 04:06:16;;;;;;;16.50;4.90;;;10.50;99.90;;;;;;5026236;28;39318;-82
2023/11/05 04:08:44;;;;;;;20.40;4.23;;;10.50;99.90;;;;;;5026708;28;38634;-81
2023/11/05 04:11:19;;;;;;;19.37;3.90;;;10.60;99.90;;;;;;5030864;28;38630;-81
2023/11/05 04:13:46;;;;;;;11.13;3.73;;;10.50;99.90;;;;;;5019338;28;38999;-81
2023/11/05 04:16:14;;;;;;;12.53;4.37;;;10.60;99.90;;;;;;5012796;28;37967;-81
2023/11/05 04:18:41;;;;;;;16.73;4.90;;;10.70;99.90;;;;;;5016949;28;37817;-81
2023/11/05 04:21:07;;;;;;;12.60;4.13;;;10.60;99.90;;;;;;5011670;28;38480;-81
2023/11/05 04:23:40;;;;;;;16.20;4.20;;;10.60;99.90;;;;;;5024064;28;37087;-81
2023/11/05 04:26:09;;;;;;;14.30;3.87;;;10.60;99.90;;;;;;5030701;28;39147;-81
2023/11/05 04:28:35;;;;;;;14.37;3.90;;;10.60;99.90;;;;;;5030662;28;37692;-81
2023/11/05 04:31:01;;;;;;;15.37;3.53;;;10.70;99.90;;;;;;5025109;28;37221;-81
2023/11/05 04:33:27;;;;;;;13.93;3.43;;;10.70;99.90;;;;;;5030176;28;49155;-81
2023/11/05 04:35:55;;;;;;;14.97;3.37;;;10.70;99.90;;;;;;5025681;28;39613;-81
2023/11/05 04:38:21;;;;;;;15.03;3.57;;;10.80;99.90;;;;;;5024623;28;38637;-80
2023/11/05 04:40:47;;;;;;;14.70;3.83;;;10.80;99.90;;;;;;5016672;28;38055;-81
2023/11/05 04:43:13;;;;;;;12.93;2.70;;;10.80;99.90;;;;;;5019307;28;38198;-81
2023/11/05 04:45:39;;;;;;;13.63;3.63;;;10.80;99.90;;;;;;5027365;28;37880;-81
2023/11/05 04:48:06;;;;;;;17.30;2.90;;;10.80;99.90;;;;;;5022210;28;37777;-81
2023/11/05 04:50:36;;;;;;;12.13;2.80;;;10.90;99.90;;;;;;5018262;28;37654;-80
2023/11/05 04:53:03;;;;;;;14.80;3.53;;;10.90;99.90;;;;;;5031565;28;35957;-80
2023/11/05 04:55:30;;;;;;;12.77;3.87;;;10.90;99.90;;;;;;5027821;28;38754;-81
2023/11/05 04:57:58;;;;;;;16.23;3.17;;;10.90;99.90;;;;;;5011028;28;37392;-81
2023/11/05 05:00:24;;;;;;;20.50;3.60;;;10.90;99.90;;;;;;5028037;28;38285;-81
2023/11/05 05:02:51;;;;;;;14.53;3.60;;;10.90;99.90;;;;;;5030518;28;37278;-80
2023/11/05 05:05:22;;;;;;;15.37;3.10;;;10.90;99.90;;;;;;5015813;28;39550;-80
2023/11/05 05:07:48;;;;;;;15.57;4.33;;;10.90;99.90;;;;;;5014325;28;37496;-80
2023/11/05 05:10:14;;;;;;;16.63;3.33;;;10.90;99.90;;;;;;5017972;28;36827;-82
2023/11/05 05:12:43;;;;;;;16.27;3.80;;;10.90;99.90;;;;;;5019006;28;37711;-80
2023/11/05 05:15:09;;;;;;;21.93;6.77;;;10.90;99.90;;;;;;5017173;28;39007;-80
2023/11/05 05:17:35;;;;;;;19.67;7.37;;;10.80;99.90;;;;;;5010779;28;37679;-80
2023/11/05 05:20:03;;;;;;;15.17;4.70;;;10.80;99.90;;;;;;5013939;28;36915;-80
2023/11/05 05:22:30;;;;;;;21.03;6.80;;;10.80;99.90;;;;;;5014643;28;47063;-80
2023/11/05 05:24:57;;;;;;;20.43;4.60;;;10.80;99.90;;;;;;5018418;28;39364;-81
2023/11/05 05:27:23;;;;;;;10.60;3.07;;;10.80;99.90;;;;;;5032628;28;38551;-81
2023/11/05 05:29:53;;;;;;;17.57;3.33;;;10.80;99.90;;;;;;5028429;28;38087;-81
2023/11/05 05:32:19;;;;;;;15.37;2.97;;;10.80;99.90;;;;;;5003267;28;36347;-81
2023/11/05 05:34:47;;;;;;;14.90;2.60;;;10.80;99.90;;;;;;5017129;28;37875;-81
2023/11/05 05:37:15;;;;;;;17.10;2.93;;;10.80;99.90;;;;;;5005488;28;37876;-81
2023/11/05 05:40:08;;;;;;;13.17;3.37;;;10.80;99.90;;;;;;5016150;28;38446;-81
2023/11/05 05:42:45;;;;;;;13.70;3.00;;;10.80;99.90;;;;;;5003378;28;48041;-82
2023/11/05 05:45:12;;;;;;;16.87;3.27;;;10.80;99.90;;;;;;4996756;28;37943;-82
2023/11/05 05:47:47;;;;;;;13.43;2.78;;;10.80;99.90;;;;;;5032372;28;38943;-82
2023/11/05 05:50:53;;;;;;;16.92;3.10;;;10.80;99.90;;;;;;5019352;28;38283;-82
2023/11/05 05:53:19;;;;;;;14.33;3.37;;;10.80;99.90;;;;;;5035594;28;37240;-82
2023/11/05 05:55:46;;;;;;;16.70;3.23;;;10.80;99.90;;;;;;5006786;28;40576;-81
2023/11/05 05:58:21;;;;;;;14.27;3.10;;;10.80;99.90;;;;;;5016761;28;38941;-81
2023/11/05 06:00:52;;;;;;;13.70;3.33;;;10.80;99.90;;;;;;5028805;28;37233;-82
2023/11/05 06:03:18;;;;;;;18.60;3.50;;;10.90;99.90;;;;;;5021617;28;38632;-81
2023/11/05 06:05:56;;;;;;;16.97;3.17;;;10.90;99.90;;;;;;5024605;28;40344;-81
2023/11/05 06:08:24;;;;;;;13.07;2.83;;;10.90;99.90;;;;;;5024281;28;37112;-81
2023/11/05 06:10:50;;;;;;;14.25;2.67;;;10.90;99.90;;;;;;5027483;28;38910;-81
2023/11/05 06:13:20;;;;;;;13.70;2.50;;;10.90;99.90;;;;;;5025339;28;36362;-81
2023/11/05 06:15:49;;;;;;;15.68;3.25;;;10.90;99.90;;;;;;5032861;28;41389;-81
2023/11/05 06:18:15;;;;;;;22.40;3.78;;;10.90;99.90;;;;;;5024626;28;38165;-81
2023/11/05 06:20:45;;;;;;;13.80;3.00;;;11.00;99.90;;;;;;5025246;28;37435;-82
2023/11/05 06:23:11;;;;;;;15.43;3.13;;;11.00;99.90;;;;;;5015386;28;36301;-82
2023/11/05 06:25:38;;;;;;;15.48;3.53;;;11.00;99.90;;;;;;5039403;28;39116;-81
2023/11/05 06:28:04;;;;;;;16.27;3.63;;;11.00;99.90;;;;;;5000210;28;37227;-80
2023/11/05 06:30:32;;;;;;;18.20;3.30;;;11.00;99.90;;;;;;5015263;28;38083;-80
2023/11/05 06:33:00;;;;;;;14.00;2.50;;;11.10;99.90;;;;;;5024062;28;35471;-80
2023/11/05 06:35:28;;;;;;;12.70;3.22;;;11.00;99.90;;;;;;5020692;28;37950;-80
2023/11/05 06:38:00;;;;;;;16.63;3.63;;;11.10;99.90;;;;;;5012081;28;36921;-81
2023/11/05 06:40:32;;;;;;;16.42;3.22;;;11.10;99.90;;;;;;5027005;28;38533;-81
2023/11/05 06:43:05;;;;;;;13.43;3.25;;;11.10;99.90;;;;;;5024995;28;37738;-81
2023/11/05 06:45:34;;;;;;;18.67;2.83;;;11.10;99.90;;;;;;5014784;28;46819;-81
2023/11/05 06:48:00;;;;;;;16.20;3.15;;;11.10;99.90;;;;;;5019823;28;38906;-81
2023/11/05 06:50:30;;;;;;;18.45;3.30;;;11.10;99.90;;;;;;5022658;28;37044;-81
2023/11/05 06:53:03;;;;;;;19.83;4.03;;;11.10;99.90;;;;;;5027722;28;36238;-80
2023/11/05 06:55:30;;;;;;;21.23;3.80;;;11.10;99.90;;;;;;5015536;28;46683;-81
2023/11/05 06:57:56;;;;;;;14.02;2.60;;;11.10;99.90;;;;;;5026522;28;38870;-82
2023/11/05 07:00:24;;;;;;;11.48;3.17;;;11.10;99.90;;;;;;5031468;28;36904;-81
2023/11/05 07:02:50;;;;;;;18.33;3.20;;;11.10;99.90;;;;;;5019508;28;37468;-81
2023/11/05 07:05:20;;;;;;;10.80;2.97;;;11.10;99.90;;;;;;5023792;28;38598;-81
2023/11/05 07:07:55;;;;;;;15.57;3.10;;;11.10;99.90;;;;;;5031059;28;37209;-81
2023/11/05 07:10:21;;;;;;;19.38;3.35;;;11.10;99.90;;;;;;5018056;28;36777;-81
2023/11/05 07:12:52;;;;;;;17.23;3.23;;;11.10;99.90;;;;;;5020681;28;37270;-81
2023/11/05 07:15:21;;;;;;;15.07;3.47;;;11.10;99.90;;;;;;5026714;28;38056;-82
2023/11/05 07:17:53;;;;;;;16.73;3.03;;;11.00;99.90;;;;;;5024846;28;39074;-81
2023/11/05 07:20:20;;;;;;;18.40;3.60;;;11.00;99.90;;;;;;5004464;28;37405;-80
2023/11/05 07:22:47;;;;;;;18.92;4.20;;;11.00;99.90;;;;;;5008974;28;38135;-81
2023/11/05 07:25:16;;;;;;;17.52;3.42;;;11.00;99.90;;;;;;5012392;28;37512;-81
2023/11/05 07:27:42;;;;;;;16.23;4.05;;;10.90;99.90;;;;;;5009701;28;38783;-80
2023/11/05 07:30:13;;;;;;;14.95;3.78;;;10.90;99.90;;;;;;5015021;28;38296;-80
2023/11/05 07:32:40;;;;;;;20.23;3.50;;;11.00;99.90;;;;;;5014571;28;35812;-81
2023/11/05 07:35:06;;;;;;;13.02;3.28;;;11.00;99.90;;;;;;5005190;28;38858;-81
2023/11/05 07:37:32;;;;;;;16.92;3.72;;;11.00;99.90;;;;;;4986440;28;37278;-81
2023/11/05 07:39:58;;;;;;;14.48;3.50;;;11.00;99.90;;;;;;5011655;28;36507;-81
2023/11/05 07:42:30;;;;;;;19.92;4.63;;;11.00;99.90;;;;;;5014531;28;37244;-80
2023/11/05 07:44:56;;;;;;;15.75;3.75;;;11.00;99.90;;;;;;5012905;28;38416;-80
2023/11/05 07:47:23;;;;;;;18.33;4.00;;;11.00;99.90;;;;;;5001089;28;38354;-78
2023/11/05 07:52:25;;;;;;;14.32;3.72;;;11.10;99.90;;;;;;4999482;22;20051;-78
2023/11/05 07:54:51;;;;;;;20.10;3.30;;;11.00;99.90;;;;;;4964895;28;40714;-79
2023/11/05 07:57:17;;;;;;;16.25;3.33;;;11.10;99.90;;;;;;4962741;28;38485;-78
2023/11/05 07:59:43;;;;;;;20.92;3.65;;;11.10;99.90;;;;;;4967976;28;38214;-77
2023/11/05 08:02:12;;;;;;;17.65;3.35;;;11.10;99.90;;;;;;4974622;28;36411;-77
2023/11/05 08:04:38;;;;;;;16.58;3.53;;;11.10;99.90;;;;;;4968024;28;39143;-78
2023/11/05 08:07:04;;;;;;;17.75;3.55;;;11.20;99.90;;;;;;4964865;28;38782;-77
2023/11/05 08:09:30;;;;;;;18.10;3.03;;;11.20;99.90;;;;;;4961554;28;38215;-78
2023/11/05 08:11:58;;;;;;;19.95;3.92;;;11.20;99.90;;;;;;4960027;28;35682;-77
2023/11/05 08:14:24;;;;;;;18.00;3.45;;;11.30;99.90;;;;;;4968700;28;37647;-80
2023/11/05 08:16:53;;;;;;;15.77;2.83;;;11.30;99.90;;;;;;4971800;28;38439;-77
2023/11/05 08:19:19;;;;;;;17.73;3.33;;;11.40;99.90;;;;;;4970659;28;37485;-77
2023/11/05 08:21:45;;;;;;;12.73;2.95;;;11.40;99.90;;;;;;4959832;28;37468;-78
2023/11/05 08:24:12;;;;;;;13.10;3.20;;;11.50;99.90;;;;;;4972892;28;39423;-78
2023/11/05 08:27:02;;;;;;;19.13;3.92;;;11.50;99.90;;;;;;4983615;28;37590;-82
2023/11/05 08:29:28;;;;;;;9.98;2.47;;;11.50;99.90;;;;;;4881036;29;50324;-79
2023/11/05 08:31:55;;;;;;;10.57;3.10;;;11.60;99.90;;;;;;4949797;28;36640;-78
2023/11/05 08:34:22;;;;;;;14.82;4.10;;;11.60;99.90;;;;;;4984083;28;38490;-81
2023/11/05 08:36:48;;;;;;;13.55;4.25;;;11.60;99.90;;;;;;4969610;28;39880;-80
2023/11/05 08:39:19;;;;;;;15.30;3.92;;;11.60;99.90;;;;;;4961135;28;37961;-80
2023/11/05 08:41:45;;;;;;;12.38;4.25;;;11.70;99.90;;;;;;4980928;28;37014;-81
2023/11/05 08:44:11;;;;;;;13.52;4.28;;;11.60;99.90;;;;;;4970305;28;39589;-80
2023/11/05 08:46:48;;;;;;;12.13;4.70;;;11.50;99.90;;;;;;4984578;28;38372;-81
2023/11/05 08:49:16;;;;;;;13.25;4.80;;;11.40;99.90;;;;;;5001519;28;36856;-81
2023/11/05 08:51:57;;;;;;;14.77;5.43;;;11.40;99.90;;;;;;4993774;28;36905;-81
2023/11/05 08:54:25;;;;;;;15.30;4.65;;;11.40;99.90;;;;;;4990403;28;38530;-80
2023/11/05 08:56:51;;;;;;;10.30;5.03;;;11.30;99.90;;;;;;4964870;28;37144;-79
2023/11/05 08:59:17;;;;;;;14.93;5.22;;;11.50;99.90;;;;;;4964198;28;37019;-80
2023/11/05 09:01:44;;;;;;;11.45;4.93;;;11.40;99.90;;;;;;4985374;28;35921;-80
2023/11/05 09:04:10;;;;;;;10.52;5.28;;;11.40;99.90;;;;;;4961118;28;38414;-80
2023/11/05 09:06:36;;;;;;;12.35;5.07;;;11.50;99.90;;;;;;4982769;28;38410;-80
2023/11/05 09:09:05;;;;;;;12.00;5.70;;;11.60;99.90;;;;;;4989833;28;36727;-81
2023/11/05 09:11:33;;;;;;;14.93;7.13;;;11.50;99.90;;;;;;4965806;28;36845;-80
2023/11/05 09:13:59;;;;;;;14.02;4.22;;;11.50;99.90;;;;;;4995942;28;38426;-81
2023/11/05 09:16:25;;;;;;;11.18;4.30;;;11.40;99.90;;;;;;4980088;28;39536;-80
2023/11/05 09:18:51;;;;;;;14.05;5.13;;;11.40;99.90;;;;;;4973028;28;36164;-80
2023/11/05 09:21:17;;;;;;;20.23;4.32;;;11.50;99.90;;;;;;4953156;28;37366;-79
2023/11/05 09:23:47;;;;;;;10.88;3.67;;;11.40;99.90;;;;;;4968184;28;38042;-79
2023/11/05 09:26:13;;;;;;;18.43;4.63;;;11.40;99.90;;;;;;4970921;28;38171;-79
2023/11/05 09:28:40;;;;;;;16.00;4.43;;;11.40;99.90;;;;;;4947618;28;38775;-79
2023/11/05 09:31:06;;;;;;;18.17;5.17;;;11.40;99.90;;;;;;4960447;28;36270;-79
2023/11/05 09:33:32;;;;;;;20.25;6.53;;;11.40;99.90;;;;;;4945960;28;38888;-77
2023/11/05 09:35:58;;;;;;;22.55;6.63;;;11.50;99.90;;;;;;4952089;28;38074;-78
2023/11/05 09:38:24;;;;;;;21.23;6.93;;;11.50;99.90;;;;;;4956290;28;37432;-77
2023/11/05 09:40:52;;;;;;;24.23;7.32;;;11.50;99.90;;;;;;4966759;28;38168;-78
2023/11/05 09:43:18;;;;;;;22.83;6.60;;;11.60;99.90;;;;;;4951720;28;39168;-77
2023/11/05 09:45:49;;;;;;;23.95;6.03;;;11.60;99.90;;;;;;4967400;28;37243;-78
2023/11/05 09:48:16;;;;;;;19.88;5.45;;;11.60;99.90;;;;;;4954970;28;38465;-79
2023/11/05 09:50:44;;;;;;;18.65;5.47;;;11.60;99.90;;;;;;4955927;28;36426;-77
2023/11/05 09:53:15;;;;;;;18.38;4.38;;;11.70;99.90;;;;;;4963336;28;38084;-78
2023/11/05 09:55:44;;;;;;;14.48;3.90;;;11.80;99.90;;;;;;4973743;28;38288;-78
2023/11/05 09:58:12;;;;;;;8.15;2.88;;;11.90;99.90;;;;;;4949638;28;37453;-78
2023/11/05 10:00:38;;;;;;;12.10;3.17;;;12.00;99.90;;;;;;4961686;28;35845;-76
2023/11/05 10:03:14;;;;;;;9.30;2.40;;;11.90;99.90;;;;;;4951040;28;37970;-76
2023/11/05 10:05:45;;;;;;;10.38;2.50;;;12.00;99.90;;;;;;4962853;28;38806;-77
2023/11/05 10:08:12;;;;;;;14.73;2.80;;;12.10;99.90;;;;;;4944835;28;38024;-77
2023/11/05 10:10:41;;;;;;;6.68;2.47;;;12.10;99.90;;;;;;4961667;28;35727;-76
2023/11/05 10:13:07;;;;;;;10.90;2.72;;;12.10;99.90;;;;;;4949255;28;37612;-76
2023/11/05 10:15:34;;;;;;;7.65;2.60;;;12.10;99.90;;;;;;4949625;28;38501;-76
2023/11/05 10:18:01;;;;;;;7.38;2.47;;;12.20;99.90;;;;;;4964784;28;37286;-77
2023/11/05 10:20:30;;;;;;;6.72;2.53;;;12.20;99.90;;;;;;4948656;28;47155;-77
2023/11/05 10:23:04;;;;;;;9.23;2.67;;;12.20;99.90;;;;;;4964243;28;39807;-76
2023/11/05 10:25:31;;;;;;;9.30;2.78;;;12.20;99.90;;;;;;4967247;28;48034;-77
2023/11/05 10:27:57;;;;;;;9.75;2.60;;;12.20;99.90;;;;;;4950303;28;39067;-77
2023/11/05 10:30:26;;;;;;;7.30;2.50;;;12.20;99.90;;;;;;4953083;28;37217;-76
2023/11/05 10:32:53;;;;;;;11.70;2.80;;;12.40;99.90;;;;;;4964772;28;37758;-77
2023/11/05 10:35:21;;;;;;;12.75;2.60;;;12.60;99.90;;;;;;4953680;28;38260;-77
2023/11/05 10:37:51;;;;;;;8.32;2.25;;;12.60;99.90;;;;;;4962632;28;38923;-77
2023/11/05 10:40:17;;;;;;;8.60;2.78;;;12.60;99.90;;;;;;4965081;28;36245;-77
2023/11/05 10:42:45;;;;;;;13.80;2.67;;;12.60;99.90;;;;;;4965968;28;37586;-77
2023/11/05 10:45:16;;;;;;;6.72;2.25;;;12.60;99.90;;;;;;4945124;28;37096;-78
2023/11/05 10:47:45;;;;;;;7.40;2.40;;;12.60;99.90;;;;;;4946527;28;37832;-79
2023/11/05 10:50:23;;;;;;;9.70;2.50;;;12.50;99.90;;;;;;4955866;28;38155;-79
2023/11/05 10:52:54;;;;;;;10.60;2.67;;;12.50;99.90;;;;;;4956017;28;40328;-78
2023/11/05 10:55:33;;;;;;;10.52;2.22;;;12.20;99.90;;;;;;4951692;28;37855;-78
2023/11/05 10:58:00;;;;;;;8.35;2.58;;;12.10;99.90;;;;;;4948614;28;37934;-78
2023/11/05 11:00:26;;;;;;;5.93;2.80;;;12.00;99.90;;;;;;4947779;28;37683;-77
2023/11/05 11:02:54;;;;;;;5.03;2.30;;;12.00;99.90;;;;;;4950282;28;40803;-78
2023/11/05 11:05:40;;;;;;;6.63;1.95;;;12.00;99.90;;;;;;4947247;28;38012;-77
2023/11/05 11:08:15;;;;;;;5.93;2.95;;;12.10;99.90;;;;;;4957786;28;37138;-77
2023/11/05 11:10:45;;;;;;;20.75;4.85;;;12.00;99.90;;;;;;4963032;28;36125;-77
2023/11/05 11:13:28;;;;;;;13.82;5.32;;;12.00;99.90;;;;;;4961835;28;37582;-78
2023/11/05 11:15:55;;;;;;;10.85;3.75;;;12.00;99.90;;;;;;4954413;28;37800;-78
2023/11/05 11:18:27;;;;;;;10.00;2.30;;;12.00;99.90;;;;;;4956203;28;36888;-78
2023/11/05 11:20:54;;;;;;;9.95;2.20;;;12.00;99.90;;;;;;4965532;28;36319;-78
2023/11/05 11:23:21;;;;;;;8.43;2.63;;;12.00;99.90;;;;;;4959725;28;37893;-79
2023/11/05 11:26:01;;;;;;;6.15;2.38;;;12.00;99.90;;;;;;4965672;28;39631;-78
2023/11/05 11:28:28;;;;;;;10.40;2.30;;;12.10;99.90;;;;;;4960981;28;37098;-78
2023/11/05 11:30:54;;;;;;;8.43;2.33;;;12.10;99.90;;;;;;4950365;28;36955;-76
2023/11/05 11:33:22;;;;;;;10.30;2.45;;;12.10;99.90;;;;;;4961912;28;38943;-79
2023/11/05 11:35:48;;;;;;;11.20;2.70;;;12.10;99.90;;;;;;4966290;28;38751;-78
2023/11/05 11:38:16;;;;;;;7.53;1.85;;;12.10;99.90;;;;;;4961178;28;36896;-77
2023/11/05 11:40:53;;;;;;;9.95;1.77;;;12.10;99.90;;;;;;4962388;28;36015;-78
2023/11/05 11:43:20;;;;;;;10.82;1.90;;;12.10;99.90;;;;;;4952437;28;39998;-78
2023/11/05 11:45:48;;;;;;;12.10;1.98;;;12.00;99.90;;;;;;4964851;28;37319;-76
2023/11/05 11:48:15;;;;;;;7.90;1.73;;;11.90;99.90;;;;;;4946160;28;39047;-77
2023/11/05 11:50:56;;;;;;;14.20;2.30;;;11.90;99.90;;;;;;4945743;28;38540;-77
2023/11/05 11:53:41;;;;;;;11.93;2.10;;;12.00;99.90;;;;;;4961481;28;37840;-76
2023/11/05 11:56:08;;;;;;;10.45;1.95;;;12.00;99.90;;;;;;4946488;28;38634;-78
2023/11/05 11:58:40;;;;;;;9.02;2.22;;;12.00;99.90;;;;;;4955462;28;37519;-78
2023/11/05 12:01:13;;;;;;;9.48;2.00;;;12.10;99.90;;;;;;4947573;28;38027;-79
2023/11/05 12:03:40;;;;;;;8.52;2.00;;;12.00;99.90;;;;;;4964560;28;37716;-78
2023/11/05 12:06:06;;;;;;;13.45;3.08;;;12.00;99.90;;;;;;4944424;28;37484;-79
2023/11/05 12:08:42;;;;;;;9.63;2.60;;;12.00;99.90;;;;;;4957486;28;37188;-80
2023/11/05 12:11:12;;;;;;;10.77;2.00;;;12.10;99.90;;;;;;4977489;28;36236;-79
2023/11/05 12:13:39;;;;;;;10.85;2.00;;;12.20;99.90;;;;;;4951379;28;39124;-79
2023/11/05 12:16:11;;;;;;;11.00;2.20;;;12.20;99.90;;;;;;4944242;28;38366;-79
2023/11/05 12:18:39;;;;;;;10.07;1.90;;;12.20;99.90;;;;;;4958514;28;37363;-78
2023/11/05 12:21:10;;;;;;;10.90;2.35;;;12.20;99.90;;;;;;4947654;28;36889;-78
2023/11/05 12:23:38;;;;;;;14.13;2.15;;;12.20;99.90;;;;;;4945006;28;40065;-79
2023/11/05 12:26:07;;;;;;;10.32;2.40;;;12.20;99.90;;;;;;4943045;28;38619;-79
2023/11/05 12:28:33;;;;;;;14.93;3.10;;;12.20;99.90;;;;;;4964261;28;36901;-79
2023/11/05 12:31:02;;;;;;;13.52;2.53;;;12.10;99.90;;;;;;4946020;28;37893;-80
2023/11/05 12:33:28;;;;;;;10.25;2.30;;;12.10;99.90;;;;;;4960178;28;47348;-80
2023/11/05 12:35:57;;;;;;;14.98;3.05;;;12.20;99.90;;;;;;4970327;28;37277;-79
2023/11/05 12:38:27;;;;;;;16.90;2.78;;;12.10;99.90;;;;;;4979274;28;37237;-79
2023/11/05 12:40:53;;;;;;;12.65;2.50;;;12.10;99.90;;;;;;4966914;28;38655;-80
2023/11/05 12:43:23;;;;;;;11.70;2.58;;;12.10;99.90;;;;;;4970611;28;37678;-80
2023/11/05 12:45:55;;;;;;;10.70;2.25;;;12.10;99.90;;;;;;4948116;28;38419;-79
2023/11/05 12:48:25;;;;;;;11.43;2.63;;;12.10;99.90;;;;;;4959013;28;38953;-81